Detalii statie MIRACOM [00001CFF]

Toti senzorii

Date Temperatura solului [C]Precipitatii [mm]Voltaj baterie [mV]Leaf Wetness [Min]HC Air temperature [C]HC Relative humidity [%]Punctul de roua [C]
medieminmaxsumaultimatimpmedieminmaxmediemediemin
2020-01-25 15:00:00 -0.1 -0.2 -0.1 0 7352 11.16 0 0 0
2020-01-25 16:00:00 -0.1 -0.3 -0.1 0 7236 9.43 8.97 10.47 0 0 0
2020-01-25 17:00:00 -0.1 -0.2 0 0 7128 8.06 6.68 9.17 0 0 0
2020-01-25 18:00:00 0 -0.1 0 0 7080 4.22 2.35 6.3 0 0 0
2020-01-25 19:00:00 0 -0.1 0 0 7050 1.53 0.54 2.6 0 0 0
2020-01-25 20:00:00 0 -0.2 0 0 7040 0.93 -0.44 2.11 0 0 0
2020-01-25 21:00:00 -0.1 -0.3 0 0 7020 -0.31 -1.25 1.28 0 0 0
2020-01-25 22:00:00 -0.1 -0.2 0 0 7020 -1.17 -3.02 1.3 0 0 0
2020-01-25 23:00:00 -0.1 -0.2 -0.1 0 7010 -1.81 -3.45 -0.88 0 0 0
2020-01-26 00:00:00 -0.1 -0.3 -0.1 0 7010 -2.96 -4.46 -1.17 0 0 0
2020-01-26 01:00:00 -0.1 -0.2 -0.1 0 6972 -43.38 -2.27 0 0 0
2020-01-26 02:00:00 -0.1 -0.2 0 0 6942 -2.24 0 0 0
2020-01-26 03:00:00 -0.1 -0.2 -0.1 0 6962 -1.2 0 0 0
2020-01-26 04:00:00 -0.2 -0.4 -0.1 0 6982 -3.6 -4.7 -2.7 0 0 0
2020-01-26 05:00:00 -0.1 -0.2 -0.1 0 6972 -3.33 -4.59 -1.93 0 0 0
2020-01-26 06:00:00 -0.1 -0.2 -0.1 0 6972 -1.92 -2.52 -1.36 0 0 0
2020-01-26 07:00:00 -0.1 -0.2 -0.1 0 6962 -2.62 -3.73 -1.83 0 0 0
2020-01-26 08:00:00 -0.1 -0.4 -0.1 0 6952 -3.79 -4.92 -3.22 0 0 0
2020-01-26 09:00:00 -0.1 -0.2 -0.1 0 7010 -4.05 -4.89 -3.44 0 0 0
2020-01-26 10:00:00 -0.2 -0.4 -0.1 0 7284 -0.28 -3.49 2.85 0 0 0
2020-01-26 11:00:00 -0.2 -0.4 -0.1 0 7362 5.46 0 0 0
2020-01-26 12:00:00 -0.2 -0.4 -0.1 0 7352 6.32 0 0 0
2020-01-26 13:00:00 -0.2 -0.4 -0.1 0 7352 0 0 0
2020-01-26 14:00:00 -0.1 -0.2 -0.1 0 7352 -44.95 10.24 0 0 0
2020-01-26 15:00:00 -0.1 -0.2 -0.1 0 7362 10.34 10.22 10.49 0 0 0
2020-01-26 16:00:00 -0.1 -0.2 0 0 7274 9.58 9.07 10.2 0 0 0
2020-01-26 17:00:00 0 -0.1 0.1 0 7128 7.27 5.8 9 0 0 0
2020-01-26 18:00:00 0 -0.1 0 0 7080 5.23 4.21 6.35 0 0 0
2020-01-26 19:00:00 0 -0.1 0 0 7060 1.41 -0.39 4.59 0 0 0
2020-01-26 20:00:00 0 -0.2 0.1 0 7030 -0.84 -1.69 0.51 0 0 0
2020-01-26 21:00:00 0 -0.2 0.1 0 7010 -42.1 0.49 0 0 0
2020-01-26 22:00:00 0 -0.1 0 0 7010 -1.19 -2.01 -0.75 0 0 0
2020-01-26 23:00:00 0 -0.1 0 0 7000 -1.36 -2.01 -0.65 0 0 0
2020-01-27 00:00:00 0 -0.2 0 0 6952 -2.85 0 0 0
2020-01-27 01:00:00 -0.1 -0.3 0 0 6952 -2.1 0 0 0
2020-01-27 02:00:00 -0.1 -0.2 -0.1 0 6982 -19.21 -2.52 0 0 0
2020-01-27 03:00:00 -0.1 -0.3 -0.1 0 6932 -2.55 0 0 0
2020-01-27 04:00:00 -0.1 -0.4 -0.1 0 6922 -3.65 0 0 0
2020-01-27 05:00:00 -0.1 -0.2 -0.1 0 6922 -3.94 0 0 0
2020-01-27 06:00:00 -0.1 -0.2 -0.1 0 6942 -44.45 -4.5 0 0 0
2020-01-27 07:00:00 -0.1 -0.2 -0.1 0 6932 -4.57 -4.84 -3.98 0 0 0
2020-01-27 08:00:00 -0.1 -0.2 -0.1 0 6952 -4.1 -4.14 -4.05 0 0 0
2020-01-27 09:00:00 -0.1 -0.2 -0.1 0 7020 -3.49 -4.07 -2.86 0 0 0
2020-01-27 10:00:00 -0.1 -0.2 -0.1 0 7196 -2.03 -2.73 -1.14 0 0 0
2020-01-27 11:00:00 -0.1 -0.3 -0.1 0 7324 -0.1 -0.91 0.82 0 0 0
2020-01-27 12:00:00 -0.1 -0.4 -0.1 0 7304 2.45 0 0 0
2020-01-27 13:00:00 -0.1 -0.2 -0.1 0 7246 3.04 0 0 0
2020-01-27 14:00:00 -0.1 -0.3 -0.1 0 7264 3.83 0 0 0